createdAt,value
2022-09-05T00:01:53.217Z,14.90
2022-09-05T00:04:27.539Z,14.90
2022-09-05T00:07:01.186Z,15.00
2022-09-05T00:10:02.448Z,15.00
2022-09-05T00:12:35.550Z,15.00
2022-09-05T00:15:27.390Z,15.00
2022-09-05T00:24:17.498Z,15.00
2022-09-05T00:24:27.839Z,15.00
2022-09-05T00:25:01.002Z,15.00
2022-09-05T00:27:43.394Z,15.10
2022-09-05T00:31:07.810Z,15.10
2022-09-05T00:33:26.114Z,15.20
2022-09-05T00:36:07.666Z,15.10
2022-09-05T00:38:37.477Z,15.20
2022-09-05T00:41:09.589Z,15.20
2022-09-05T00:43:42.056Z,15.20
2022-09-05T00:46:15.724Z,15.30
2022-09-05T00:48:54.543Z,15.30
2022-09-05T00:51:35.156Z,15.30
2022-09-05T00:54:46.779Z,15.30
2022-09-05T00:57:40.444Z,15.20
2022-09-05T01:00:17.801Z,15.40
2022-09-05T01:03:14.008Z,15.20
2022-09-05T01:06:15.150Z,15.30
2022-09-05T01:09:07.952Z,15.30
2022-09-05T01:11:48.607Z,15.30
2022-09-05T01:14:37.764Z,15.20
2022-09-05T01:17:18.567Z,15.20
2022-09-05T01:20:04.733Z,15.10
2022-09-05T01:23:03.687Z,15.20
2022-09-05T01:25:54.939Z,15.20
2022-09-05T01:29:15.047Z,15.10
2022-09-05T01:31:27.575Z,15.00
2022-09-05T01:34:02.175Z,15.10
2022-09-05T01:36:55.255Z,15.00
2022-09-05T01:40:15.218Z,15.00
2022-09-05T01:42:33.609Z,14.90
2022-09-05T01:45:08.666Z,14.90
2022-09-05T01:47:53.169Z,14.90
2022-09-05T01:50:37.214Z,14.90
2022-09-05T01:53:26.462Z,14.90
2022-09-05T01:56:20.416Z,14.90
2022-09-05T01:59:03.802Z,14.90
2022-09-05T02:01:44.074Z,14.90
2022-09-05T02:05:04.653Z,14.90
2022-09-05T02:07:48.357Z,14.80
2022-09-05T02:10:43.915Z,14.80
2022-09-05T02:13:19.304Z,14.70
2022-09-05T02:15:51.198Z,14.80
2022-09-05T02:18:44.420Z,14.80
2022-09-05T02:21:19.655Z,14.80
2022-09-05T02:23:54.088Z,14.80
2022-09-05T02:26:27.243Z,14.70
2022-09-05T02:29:01.322Z,14.70
2022-09-05T02:31:36.796Z,14.70
2022-09-05T02:34:17.900Z,14.70
2022-09-05T02:36:52.068Z,14.60
2022-09-05T02:45:02.341Z,14.50
2022-09-05T02:45:09.523Z,14.50
2022-09-05T02:45:26.925Z,14.50
2022-09-05T02:48:15.711Z,14.40
2022-09-05T02:57:27.275Z,14.40
2022-09-05T02:57:32.962Z,14.30
2022-09-05T02:58:05.702Z,14.30
2022-09-05T02:59:53.306Z,14.20
2022-09-05T03:02:28.294Z,14.10
2022-09-05T03:05:05.763Z,14.00
2022-09-05T03:08:02.602Z,14.00
2022-09-05T03:11:04.332Z,13.90
2022-09-05T03:14:19.157Z,13.90
2022-09-05T03:17:21.196Z,13.80
2022-09-05T03:20:21.998Z,13.70
2022-09-05T03:23:35.031Z,13.70
2022-09-05T03:26:45.601Z,13.60
2022-09-05T03:29:50.018Z,13.60
2022-09-05T03:32:49.144Z,13.50
2022-09-05T03:36:04.684Z,13.40
2022-09-05T03:39:18.136Z,13.40
2022-09-05T03:42:15.149Z,13.30
2022-09-05T03:45:01.735Z,13.20
2022-09-05T03:48:03.637Z,13.20
2022-09-05T03:57:07.800Z,13.10
2022-09-05T03:57:14.834Z,13.10
2022-09-05T03:57:41.766Z,12.90
2022-09-05T04:00:21.646Z,12.90
2022-09-05T04:08:09.967Z,12.80
2022-09-05T04:08:16.280Z,12.80
2022-09-05T04:09:07.159Z,12.80
2022-09-05T04:11:39.969Z,12.70
2022-09-05T04:14:15.105Z,12.70
2022-09-05T04:16:51.069Z,12.60
2022-09-05T04:19:27.899Z,12.60
2022-09-05T04:22:04.657Z,12.50
2022-09-05T04:24:42.682Z,12.60
2022-09-05T04:27:36.059Z,12.60
2022-09-05T04:30:39.783Z,12.60
2022-09-05T04:33:23.456Z,12.60
2022-09-05T04:36:18.147Z,12.50
2022-09-05T04:38:47.376Z,12.60
2022-09-05T04:41:17.210Z,12.60
2022-09-05T04:43:48.667Z,12.60
2022-09-05T04:46:24.319Z,12.60
2022-09-05T04:49:00.714Z,12.60
2022-09-05T04:52:00.949Z,12.70
2022-09-05T04:54:35.249Z,12.70
2022-09-05T04:57:16.513Z,12.80
2022-09-05T05:02:44.638Z,12.90
2022-09-05T05:06:11.540Z,13.10
2022-09-05T05:06:16.111Z,13.00
2022-09-05T05:08:47.155Z,13.20
2022-09-05T05:17:54.345Z,13.20
2022-09-05T05:18:37.734Z,13.50
2022-09-05T05:20:41.777Z,13.60
2022-09-05T05:23:52.260Z,13.70
2022-09-05T05:32:45.842Z,14.00
2022-09-05T05:35:48.020Z,14.00
2022-09-05T05:38:28.856Z,14.10
2022-09-05T05:41:15.577Z,14.20
2022-09-05T05:43:47.706Z,14.10
2022-09-05T05:46:38.609Z,14.20
2022-09-05T05:49:31.954Z,14.10
2022-09-05T05:52:37.137Z,14.10
2022-09-05T05:55:50.319Z,14.20
2022-09-05T06:02:03.013Z,14.30
2022-09-05T06:05:12.843Z,14.40
2022-09-05T06:11:06.037Z,14.70
2022-09-05T06:11:43.886Z,14.80
2022-09-05T06:19:28.917Z,15.20
2022-09-05T06:23:02.467Z,15.40
2022-09-05T06:28:34.851Z,15.70
2022-09-05T06:31:30.763Z,15.80
2022-09-05T06:34:33.514Z,16.00
2022-09-05T06:37:11.602Z,16.20
2022-09-05T06:39:58.651Z,16.30
2022-09-05T06:42:43.694Z,16.40
2022-09-05T06:45:28.910Z,16.50
2022-09-05T06:48:05.961Z,16.60
2022-09-05T06:51:07.239Z,16.70
2022-09-05T06:53:57.375Z,16.70
2022-09-05T06:56:42.070Z,16.80
2022-09-05T06:59:55.671Z,16.90
2022-09-05T07:02:58.347Z,16.90
2022-09-05T07:05:38.895Z,17.00
2022-09-05T07:08:36.167Z,17.10
2022-09-05T07:11:16.461Z,17.30
2022-09-05T07:13:57.586Z,17.40
2022-09-05T07:16:42.928Z,17.60
2022-09-05T07:19:27.257Z,17.70
2022-09-05T07:22:44.550Z,17.80
2022-09-05T07:25:08.878Z,18.10
2022-09-05T07:27:49.868Z,18.10
2022-09-05T07:30:29.012Z,18.30
2022-09-05T07:33:00.086Z,18.50
2022-09-05T07:35:38.444Z,18.60
2022-09-05T07:38:16.064Z,18.70
2022-09-05T07:40:51.372Z,18.80
2022-09-05T07:43:24.065Z,18.80
2022-09-05T07:46:11.845Z,18.80
2022-09-05T07:48:44.215Z,18.80
2022-09-05T07:56:51.596Z,19.10
2022-09-05T07:56:52.883Z,18.90
2022-09-05T07:59:55.869Z,19.60
2022-09-05T08:02:24.236Z,19.60
2022-09-05T08:04:52.666Z,19.70
2022-09-05T08:07:49.086Z,19.60
2022-09-05T08:10:20.792Z,19.60
2022-09-05T08:13:23.661Z,19.80
2022-09-05T08:16:10.432Z,20.00
2022-09-05T08:18:50.203Z,20.20
2022-09-05T08:21:27.087Z,20.30
2022-09-05T08:24:05.565Z,20.50
2022-09-05T08:26:47.468Z,20.70
2022-09-05T08:29:28.404Z,20.90
2022-09-05T08:32:03.799Z,21.10
2022-09-05T08:34:45.463Z,21.30
2022-09-05T08:37:21.656Z,21.30
2022-09-05T08:40:01.718Z,21.30
2022-09-05T08:43:44.396Z,21.40
2022-09-05T08:46:40.994Z,21.60
2022-09-05T08:48:42.766Z,21.70
2022-09-05T08:51:27.621Z,21.70
2022-09-05T08:54:30.739Z,21.60
2022-09-05T08:57:07.373Z,21.70
2022-09-05T09:00:06.312Z,21.80
2022-09-05T09:03:07.069Z,21.90
2022-09-05T09:06:14.180Z,22.00
2022-09-05T09:09:08.054Z,22.20
2022-09-05T09:11:39.181Z,22.40
2022-09-05T09:14:43.753Z,22.40
2022-09-05T09:17:28.622Z,22.60
2022-09-05T09:20:19.457Z,22.80
2022-09-05T09:22:57.324Z,22.90
2022-09-05T09:25:31.912Z,22.80
2022-09-05T09:28:50.258Z,22.80
2022-09-05T09:31:29.458Z,22.80
2022-09-05T09:34:21.847Z,22.90
2022-09-05T09:37:11.230Z,22.80
2022-09-05T09:40:00.278Z,22.80
2022-09-05T09:42:39.542Z,22.90
2022-09-05T09:45:29.800Z,23.00
2022-09-05T09:48:23.450Z,23.00
2022-09-05T09:51:22.808Z,23.00
2022-09-05T09:54:16.612Z,23.00
2022-09-05T09:57:27.095Z,23.00
2022-09-05T10:00:09.297Z,23.00
2022-09-05T10:06:52.510Z,23.10
2022-09-05T10:10:35.163Z,23.10
2022-09-05T10:10:46.164Z,23.10
2022-09-05T10:15:15.157Z,22.90
2022-09-05T10:18:31.458Z,22.90
2022-09-05T10:21:18.459Z,22.90
2022-09-05T10:24:12.746Z,22.90
2022-09-05T10:27:07.622Z,22.90
2022-09-05T10:29:45.627Z,22.90
2022-09-05T10:35:02.907Z,23.00
2022-09-05T10:35:22.663Z,23.00
2022-09-05T10:38:02.334Z,23.10
2022-09-05T10:41:20.171Z,23.00
2022-09-05T10:43:29.978Z,22.90
2022-09-05T10:46:07.211Z,22.90
2022-09-05T10:48:43.193Z,22.90
2022-09-05T10:51:27.998Z,22.80
2022-09-05T10:54:19.026Z,22.80
2022-09-05T10:56:50.951Z,22.90
2022-09-05T11:02:21.115Z,23.00
2022-09-05T11:02:33.446Z,22.90
2022-09-05T11:05:12.902Z,23.00
2022-09-05T11:07:43.646Z,23.00
2022-09-05T11:10:20.390Z,23.00
2022-09-05T11:13:05.797Z,22.90
2022-09-05T11:16:03.634Z,22.90
2022-09-05T11:18:56.926Z,22.90
2022-09-05T11:21:50.254Z,23.00
2022-09-05T11:24:38.189Z,23.10
2022-09-05T11:27:24.931Z,23.10
2022-09-05T11:29:57.440Z,23.10
2022-09-05T11:37:44.384Z,23.00
2022-09-05T11:39:54.715Z,23.10
2022-09-05T11:40:26.567Z,23.10
2022-09-05T11:42:08.910Z,23.20
2022-09-05T11:44:50.303Z,23.40
2022-09-05T11:47:51.643Z,23.40
2022-09-05T11:51:07.846Z,23.60
2022-09-05T11:54:01.982Z,23.50
2022-09-05T11:57:31.943Z,23.60
2022-09-05T12:00:33.603Z,23.60
2022-09-05T12:03:59.304Z,23.70
2022-09-05T12:06:48.096Z,23.70
2022-09-05T12:09:30.929Z,23.80
2022-09-05T12:12:30.049Z,23.90
2022-09-05T12:15:26.595Z,23.90
2022-09-05T12:18:19.096Z,23.90
2022-09-05T12:20:56.228Z,24.00
2022-09-05T12:23:57.960Z,24.10
2022-09-05T12:27:39.696Z,24.10
2022-09-05T12:29:29.183Z,24.20
2022-09-05T12:34:44.006Z,24.30
2022-09-05T12:36:06.336Z,24.30
2022-09-05T12:41:40.654Z,24.60
2022-09-05T12:42:10.389Z,24.40
2022-09-05T12:44:34.669Z,24.60
2022-09-05T12:46:33.316Z,24.70
2022-09-05T12:49:07.320Z,24.70
2022-09-05T12:51:46.704Z,24.60
2022-09-05T12:54:33.464Z,24.60
2022-09-05T13:01:08.146Z,24.60
2022-09-05T13:03:04.625Z,24.60
2022-09-05T13:03:11.798Z,24.60
2022-09-05T13:05:58.172Z,24.60
2022-09-05T13:08:33.788Z,24.60
2022-09-05T13:14:58.327Z,24.80
2022-09-05T13:14:58.328Z,24.70
2022-09-05T13:16:47.117Z,24.80
2022-09-05T13:19:26.130Z,24.80
2022-09-05T13:21:57.401Z,24.80
2022-09-05T13:24:30.831Z,24.80
2022-09-05T13:27:05.701Z,24.90
2022-09-05T13:30:29.754Z,24.90
2022-09-05T13:37:58.358Z,24.90
2022-09-05T13:38:10.024Z,24.90
2022-09-05T13:38:47.816Z,24.90
2022-09-05T13:41:28.366Z,24.80
2022-09-05T13:44:00.456Z,24.70
2022-09-05T13:46:58.503Z,24.70
2022-09-05T13:49:32.363Z,24.60
2022-09-05T13:52:16.957Z,24.70
2022-09-05T13:54:51.888Z,24.70
2022-09-05T13:57:40.235Z,24.80
2022-09-05T14:00:48.650Z,24.80
2022-09-05T14:03:55.694Z,24.70
2022-09-05T14:06:48.775Z,24.60
2022-09-05T14:09:44.661Z,24.60
2022-09-05T14:12:30.128Z,24.60
2022-09-05T14:15:10.017Z,24.60
2022-09-05T14:17:57.808Z,24.60
2022-09-05T14:20:49.630Z,24.60
2022-09-05T14:23:20.167Z,24.60
2022-09-05T14:25:52.332Z,24.60
2022-09-05T14:28:27.128Z,24.50
2022-09-05T14:35:49.968Z,24.50
2022-09-05T14:37:44.165Z,24.60
2022-09-05T14:37:46.277Z,24.50
2022-09-05T14:40:46.531Z,24.60
2022-09-05T14:43:57.017Z,24.60
2022-09-05T14:47:02.213Z,24.60
2022-09-05T14:49:54.964Z,24.50
2022-09-05T14:52:27.066Z,24.50
2022-09-05T15:02:40.716Z,24.20
2022-09-05T15:02:48.384Z,24.10
2022-09-05T15:06:37.256Z,24.00
2022-09-05T15:11:53.605Z,24.00
2022-09-05T15:12:27.919Z,24.00
2022-09-05T15:15:27.489Z,23.90
2022-09-05T15:18:01.995Z,23.80
2022-09-05T15:20:35.823Z,23.80
2022-09-05T15:23:16.187Z,23.70
2022-09-05T15:25:47.573Z,23.80
2022-09-05T15:28:21.370Z,23.80
2022-09-05T15:31:00.237Z,23.80
2022-09-05T15:33:31.564Z,23.80
2022-09-05T15:36:01.044Z,23.80
2022-09-05T15:38:37.899Z,23.70
2022-09-05T15:41:23.008Z,23.60
2022-09-05T15:43:58.361Z,23.50
2022-09-05T15:46:39.307Z,23.50
2022-09-05T15:49:14.268Z,23.50
2022-09-05T15:51:47.618Z,23.50
2022-09-05T15:54:30.707Z,23.50
2022-09-05T15:57:09.922Z,23.50
2022-09-05T15:59:49.807Z,23.50
2022-09-05T16:02:23.062Z,23.50
2022-09-05T16:10:26.967Z,23.50
2022-09-05T16:10:39.232Z,23.50
2022-09-05T16:13:52.223Z,23.40
2022-09-05T16:21:36.990Z,23.40
2022-09-05T16:23:31.904Z,23.40
2022-09-05T16:23:32.257Z,23.50
2022-09-05T16:25:03.198Z,23.30
2022-09-05T16:27:49.600Z,23.20
2022-09-05T16:30:26.015Z,23.10
2022-09-05T16:33:04.046Z,23.00
2022-09-05T16:35:37.074Z,22.90
2022-09-05T16:38:18.145Z,22.90
2022-09-05T16:40:56.174Z,22.70
2022-09-05T16:43:27.775Z,22.60
2022-09-05T16:46:02.358Z,22.50
2022-09-05T16:48:41.139Z,22.50
2022-09-05T16:51:35.487Z,22.50
2022-09-05T16:54:11.267Z,22.40
2022-09-05T16:56:43.357Z,22.40
2022-09-05T16:59:15.836Z,22.30
2022-09-05T17:02:06.346Z,22.30
2022-09-05T17:05:03.264Z,22.20
2022-09-05T17:07:46.703Z,22.00
2022-09-05T17:10:20.538Z,22.00
2022-09-05T17:12:52.568Z,21.90
2022-09-05T17:15:23.360Z,21.80
2022-09-05T17:18:22.027Z,21.70
2022-09-05T17:20:49.804Z,21.70
2022-09-05T17:29:20.567Z,21.60
2022-09-05T17:29:26.024Z,21.30
2022-09-05T17:29:32.369Z,21.50
2022-09-05T17:32:06.074Z,21.10
2022-09-05T17:34:51.886Z,21.00
2022-09-05T17:37:41.116Z,21.00
2022-09-05T17:40:39.687Z,20.90
2022-09-05T17:43:16.595Z,20.70
2022-09-05T17:46:12.560Z,20.60
2022-09-05T17:49:18.626Z,20.50
2022-09-05T17:52:22.043Z,20.30
2022-09-05T17:54:53.322Z,20.20
2022-09-05T17:57:36.274Z,20.10
2022-09-05T18:00:48.928Z,20.10
2022-09-05T18:04:16.699Z,19.90
2022-09-05T18:06:59.002Z,19.80
2022-09-05T18:10:11.862Z,19.70
2022-09-05T18:13:12.451Z,19.70
2022-09-05T18:16:15.211Z,19.70
2022-09-05T18:19:32.348Z,19.60
2022-09-05T18:21:49.741Z,19.50
2022-09-05T18:24:33.407Z,19.50
2022-09-05T18:29:59.131Z,19.40
2022-09-05T18:32:42.726Z,19.40
2022-09-05T18:35:37.024Z,19.30
2022-09-05T18:38:50.501Z,19.20
2022-09-05T18:41:19.478Z,19.10
2022-09-05T18:44:13.756Z,19.10
2022-09-05T18:46:50.361Z,19.10
2022-09-05T18:50:23.767Z,19.00
2022-09-05T18:52:23.682Z,19.00
2022-09-05T18:55:31.704Z,18.90
2022-09-05T18:57:49.742Z,18.90
2022-09-05T19:00:35.100Z,18.90
2022-09-05T19:03:17.691Z,18.80
2022-09-05T19:06:02.842Z,18.70
2022-09-05T19:08:49.978Z,18.80
2022-09-05T19:11:33.178Z,18.70
2022-09-05T19:14:25.326Z,18.70
2022-09-05T19:17:02.708Z,18.60
2022-09-05T19:19:32.415Z,18.50
2022-09-05T19:22:40.956Z,18.50
2022-09-05T19:24:57.615Z,18.30
2022-09-05T19:28:48.546Z,18.20
2022-09-05T19:36:55.592Z,18.10
2022-09-05T19:37:10.673Z,18.20
2022-09-05T19:37:10.870Z,18.20
2022-09-05T19:41:30.076Z,18.00
2022-09-05T19:47:42.806Z,17.80
2022-09-05T19:47:50.495Z,17.90
2022-09-05T19:47:56.018Z,17.70
2022-09-05T19:50:21.893Z,17.70
2022-09-05T19:52:54.493Z,17.70
2022-09-05T19:55:24.598Z,17.70
2022-09-05T19:58:18.659Z,17.60
2022-09-05T20:01:00.913Z,17.60
2022-09-05T20:03:37.120Z,17.60
2022-09-05T20:06:30.375Z,17.70
2022-09-05T20:09:21.044Z,17.50
2022-09-05T20:11:50.958Z,17.50
2022-09-05T20:14:25.726Z,17.60
2022-09-05T20:16:56.373Z,17.40
2022-09-05T20:19:28.671Z,17.40
2022-09-05T20:22:14.339Z,17.40
2022-09-05T20:24:51.325Z,17.50
2022-09-05T20:27:19.894Z,17.30
2022-09-05T20:30:09.804Z,17.40
2022-09-05T20:32:49.769Z,17.30
2022-09-05T20:37:58.602Z,17.30
2022-09-05T20:43:18.556Z,17.20
2022-09-05T20:43:24.166Z,17.20
2022-09-05T20:44:22.531Z,17.20
2022-09-05T20:54:02.298Z,17.20
2022-09-05T20:54:22.587Z,17.10
2022-09-05T20:54:26.432Z,17.20
2022-09-05T20:55:42.226Z,17.20
2022-09-05T20:58:13.850Z,17.20
2022-09-05T21:01:19.494Z,17.10
2022-09-05T21:03:43.576Z,17.10
2022-09-05T21:06:22.783Z,17.10
2022-09-05T21:08:52.094Z,17.10
2022-09-05T21:11:31.169Z,17.00
2022-09-05T21:14:04.450Z,17.00
2022-09-05T21:16:35.864Z,16.90
2022-09-05T21:19:05.908Z,16.80
2022-09-05T21:21:36.106Z,16.90
2022-09-05T21:24:16.821Z,16.90
2022-09-05T21:26:47.817Z,16.80
2022-09-05T21:29:18.194Z,16.80
2022-09-05T21:31:54.682Z,16.80
2022-09-05T21:34:32.395Z,16.70
2022-09-05T21:37:07.206Z,16.80
2022-09-05T21:39:46.469Z,16.80
2022-09-05T21:44:25.411Z,16.70
2022-09-05T21:47:49.092Z,16.70
2022-09-05T21:48:07.389Z,16.70
2022-09-05T21:50:40.966Z,16.70
2022-09-05T21:57:43.238Z,16.70
2022-09-05T21:59:19.176Z,16.70
2022-09-05T21:59:26.234Z,16.60
2022-09-05T22:01:51.619Z,16.60
2022-09-05T22:04:22.995Z,16.50
2022-09-05T22:06:54.228Z,16.50
2022-09-05T22:09:23.671Z,16.40
2022-09-05T22:11:52.523Z,16.40
2022-09-05T22:14:22.282Z,16.40
2022-09-05T22:16:51.922Z,16.40
2022-09-05T22:19:37.642Z,16.30
2022-09-05T22:22:16.455Z,16.30
2022-09-05T22:24:49.338Z,16.20
2022-09-05T22:27:19.982Z,16.10
2022-09-05T22:29:50.658Z,16.10
2022-09-05T22:32:35.217Z,16.20
2022-09-05T22:35:26.804Z,16.20
2022-09-05T22:38:10.958Z,16.10
2022-09-05T22:40:41.367Z,16.10
2022-09-05T22:43:14.725Z,16.00
2022-09-05T22:45:43.196Z,16.00
2022-09-05T22:48:13.094Z,16.00
2022-09-05T22:50:42.949Z,16.00
2022-09-05T22:53:12.622Z,15.90
2022-09-05T22:55:42.395Z,15.80
2022-09-05T22:58:12.688Z,15.80
2022-09-05T23:00:41.801Z,15.80
2022-09-05T23:03:10.384Z,15.70
2022-09-05T23:05:38.499Z,15.70
2022-09-05T23:08:07.766Z,15.80
2022-09-05T23:10:38.666Z,15.80
2022-09-05T23:13:09.135Z,15.70
2022-09-05T23:15:38.166Z,15.80
2022-09-05T23:18:07.270Z,15.70
2022-09-05T23:20:35.837Z,15.60
2022-09-05T23:23:05.996Z,15.60
2022-09-05T23:25:34.975Z,15.50
2022-09-05T23:28:08.204Z,15.50
2022-09-05T23:30:36.883Z,15.50
2022-09-05T23:33:09.696Z,15.40
2022-09-05T23:35:38.889Z,15.50
2022-09-05T23:38:13.624Z,15.50
2022-09-05T23:40:41.776Z,15.30
2022-09-05T23:43:11.274Z,15.30
2022-09-05T23:45:39.472Z,15.30
2022-09-05T23:48:07.900Z,15.30
2022-09-05T23:50:36.167Z,15.30
2022-09-05T23:53:05.618Z,15.20
2022-09-05T23:55:33.810Z,15.20
2022-09-05T23:58:02.293Z,15.20
